createdAt,value
2018-05-14T00:05:38.430Z,1.63
2018-05-14T00:09:39.170Z,1.63
2018-05-14T00:15:39.934Z,1.86
2018-05-14T00:21:40.685Z,1.6
2018-05-14T00:25:41.350Z,1.6
2018-05-14T00:31:42.144Z,1.83
2018-05-14T00:31:42.161Z,1.83
2018-05-14T00:35:42.841Z,1.69
2018-05-14T00:37:43.536Z,1.79
2018-05-14T00:41:44.344Z,1.75
2018-05-14T00:47:45.252Z,1.8
2018-05-14T00:51:45.983Z,1.5
2018-05-14T00:57:46.782Z,1.65
2018-05-14T01:01:47.803Z,1.79
2018-05-14T01:03:48.422Z,1.71
2018-05-14T01:07:49.178Z,1.31
2018-05-14T01:13:49.939Z,1.61
2018-05-14T01:17:50.730Z,1.49
2018-05-14T01:23:51.404Z,1.71
2018-05-14T01:29:52.175Z,2.07
2018-05-14T01:33:52.933Z,1.71
2018-05-14T01:39:53.648Z,2.48
2018-05-14T01:43:54.516Z,1.87
2018-05-14T01:45:55.276Z,2.16
2018-05-14T01:49:56.065Z,2.32
2018-05-14T01:55:56.806Z,2.61
2018-05-14T01:59:57.541Z,2.24
2018-05-14T02:05:58.999Z,1.73
2018-05-14T02:10:02.700Z,1.83
2018-05-14T02:12:03.435Z,1.96
2018-05-14T02:16:04.204Z,1.89
2018-05-14T02:22:04.982Z,1.81
2018-05-14T02:26:05.750Z,2.14
2018-05-14T02:32:06.442Z,2.29
2018-05-14T02:38:07.342Z,2.37
2018-05-14T02:42:08.194Z,2.1
2018-05-14T02:48:08.954Z,2.21
2018-05-14T02:52:09.725Z,2.16
2018-05-14T02:54:10.411Z,2.26
2018-05-14T02:58:11.183Z,2.22
2018-05-14T03:04:11.893Z,2.4
2018-05-14T03:08:12.650Z,2.02
2018-05-14T03:14:13.394Z,2.04
2018-05-14T03:18:14.131Z,2.12
2018-05-14T03:20:14.823Z,1.76
2018-05-14T03:24:15.587Z,1.67
2018-05-14T03:30:16.698Z,1.99
2018-05-14T03:34:17.394Z,1.64
2018-05-14T03:40:18.181Z,1.64
2018-05-14T03:46:18.954Z,2.55
2018-05-14T03:50:19.752Z,2.22
2018-05-14T03:56:20.434Z,2.05
2018-05-14T04:00:21.611Z,1.57
2018-05-14T04:02:22.341Z,1.71
2018-05-14T04:06:23.083Z,2.06
2018-05-14T04:12:23.844Z,1.85
2018-05-14T04:16:24.639Z,1.79
2018-05-14T04:22:25.392Z,2.14
2018-05-14T04:26:26.230Z,2.13
2018-05-14T04:28:27.077Z,2.3
2018-05-14T04:32:27.845Z,2.28
2018-05-14T04:38:28.612Z,2.39
2018-05-14T04:42:29.323Z,2.43
2018-05-14T04:48:30.145Z,1.63
2018-05-14T04:54:31.012Z,1.63
2018-05-14T04:58:31.843Z,1.56
2018-05-14T05:04:32.583Z,2.09
2018-05-14T05:08:33.360Z,1.37
2018-05-14T05:10:34.160Z,1.83
2018-05-14T05:14:35.068Z,1.35
2018-05-14T05:20:35.878Z,2.09
2018-05-14T05:24:36.649Z,2.09
2018-05-14T05:30:37.450Z,1.5
2018-05-14T05:36:38.249Z,2.12
2018-05-14T05:40:39.030Z,1.87
2018-05-14T05:46:39.878Z,2.55
2018-05-14T05:50:40.676Z,2.71
2018-05-14T05:52:41.403Z,2.21
2018-05-14T05:56:42.059Z,1.66
2018-05-14T06:02:42.915Z,2.14
2018-05-14T06:06:44.287Z,2.23
2018-05-14T06:12:45.028Z,2.8
2018-05-14T06:16:45.788Z,2.27
2018-05-14T06:18:46.487Z,2.29
2018-05-14T06:22:47.214Z,2.34
2018-05-14T06:28:47.922Z,2.44
2018-05-14T06:32:48.685Z,1.99
2018-05-14T06:38:49.431Z,1.66
2018-05-14T06:44:50.207Z,3.25
2018-05-14T06:48:51.017Z,2.65
2018-05-14T06:54:51.703Z,2.23
2018-05-14T06:58:52.520Z,1.65
2018-05-14T07:00:53.244Z,2.05
2018-05-14T07:04:53.991Z,1.42
2018-05-14T07:10:54.873Z,2.34
2018-05-14T07:14:55.699Z,1.62
2018-05-14T07:20:56.485Z,2.18
2018-05-14T07:24:57.304Z,1.87
2018-05-14T07:26:57.987Z,1.87
2018-05-14T07:30:58.709Z,2.07
2018-05-14T07:36:59.414Z,2.11
2018-05-14T07:41:00.248Z,1.66
2018-05-14T07:47:00.952Z,2.03
2018-05-14T07:53:01.803Z,2.13
2018-05-14T07:57:02.555Z,1.56
2018-05-14T08:03:03.322Z,2.39
2018-05-14T08:07:04.675Z,1.9
2018-05-14T08:09:05.659Z,1.66
2018-05-14T08:13:06.413Z,1.95
2018-05-14T08:19:07.193Z,1.9
2018-05-14T08:23:07.952Z,1.82
2018-05-14T08:29:08.714Z,2.14
2018-05-14T08:35:09.548Z,1.9
2018-05-14T08:39:10.397Z,1.87
2018-05-14T08:45:11.540Z,2.15
2018-05-14T08:49:12.328Z,1.73
2018-05-14T08:55:13.062Z,2.29
2018-05-14T09:01:13.853Z,1.64
2018-05-14T09:05:14.535Z,2.27
2018-05-14T09:11:15.356Z,2.18
2018-05-14T09:15:16.472Z,2.16
2018-05-14T09:17:17.203Z,3.14
2018-05-14T09:21:17.991Z,2.46
2018-05-14T09:27:18.690Z,1.9
2018-05-14T09:31:19.439Z,2.66
2018-05-14T09:37:20.255Z,3.71
2018-05-14T09:43:21.056Z,3.54
2018-05-14T09:47:21.834Z,3.48
2018-05-14T09:53:22.650Z,2.6
2018-05-14T09:57:23.351Z,2.05
2018-05-14T10:03:24.239Z,1.9
2018-05-14T10:09:24.954Z,2.47
2018-05-14T10:13:25.717Z,2.57
2018-05-14T10:19:26.474Z,2.45
2018-05-14T10:23:27.159Z,2.43
2018-05-14T10:25:27.880Z,2.71
2018-05-14T10:29:28.722Z,2.24
2018-05-14T10:35:29.420Z,2.83
2018-05-14T10:39:30.246Z,2.63
2018-05-14T10:45:31.170Z,1.94
2018-05-14T10:51:31.950Z,3.54
2018-05-14T10:55:32.773Z,2.21
2018-05-14T11:01:33.551Z,2.32
2018-05-14T11:05:34.285Z,2
2018-05-14T11:07:35.042Z,1.72
2018-05-14T11:11:35.823Z,1.67
2018-05-14T11:17:36.646Z,1.89
2018-05-14T11:21:37.385Z,1.73
2018-05-14T11:27:38.179Z,1.99
2018-05-14T11:31:38.829Z,1.77
2018-05-14T11:33:39.605Z,2.19
2018-05-14T11:37:40.411Z,2.08
2018-05-14T11:43:41.153Z,1.63
2018-05-14T11:47:41.917Z,1.62
2018-05-14T11:53:42.762Z,1.43
2018-05-14T11:59:43.506Z,1.77
2018-05-14T12:03:44.479Z,1.61
2018-05-14T12:09:45.308Z,1.49
2018-05-14T12:13:46.707Z,1.64
2018-05-14T12:15:47.325Z,1.64
2018-05-14T12:19:48.055Z,1.59
2018-05-14T12:25:48.899Z,1.84
2018-05-14T12:29:49.787Z,1.89
2018-05-14T12:35:50.541Z,1.63
2018-05-14T12:39:51.290Z,1.37
2018-05-14T12:41:51.969Z,2.03
2018-05-14T12:45:52.684Z,1.79
2018-05-14T12:51:53.508Z,1.64
2018-05-14T12:55:54.154Z,1.56
2018-05-14T13:01:54.845Z,1.27
2018-05-14T13:07:55.565Z,1.57
2018-05-14T13:11:56.306Z,1.19
2018-05-14T13:17:57.148Z,1.44
2018-05-14T13:21:57.893Z,1.25
2018-05-14T13:23:58.670Z,1.36
2018-05-14T13:27:59.457Z,1.64
2018-05-14T13:34:00.215Z,1.14
2018-05-14T13:38:01.099Z,1.33
2018-05-14T13:44:01.828Z,1.41
2018-05-14T13:50:02.561Z,1.63
2018-05-14T13:54:03.313Z,1.67
2018-05-14T14:00:04.110Z,1.57
2018-05-14T14:04:04.811Z,1.65
2018-05-14T14:06:05.481Z,1.52
2018-05-14T14:10:06.208Z,1.52
2018-05-14T14:16:07.174Z,2.03
2018-05-14T14:20:08.085Z,1.55
2018-05-14T14:26:08.899Z,1.69
2018-05-14T14:30:09.885Z,1.46
2018-05-14T14:32:10.775Z,1.69
2018-05-14T14:36:11.496Z,1.2
2018-05-14T14:42:12.313Z,1.68
2018-05-14T14:46:13.038Z,1.6
2018-05-14T14:52:13.964Z,1.4
2018-05-14T14:58:14.700Z,1.56
2018-05-14T15:02:15.606Z,1.52
2018-05-14T15:08:16.343Z,2.27
2018-05-14T15:12:17.082Z,1.68
2018-05-14T15:14:17.851Z,1.52
2018-05-14T15:18:18.596Z,1.41
2018-05-14T15:24:19.432Z,4.21
2018-05-14T15:28:20.275Z,2.65
2018-05-14T15:34:21.222Z,1.87
2018-05-14T15:38:22.213Z,1.6
2018-05-14T15:40:22.941Z,1.86
2018-05-14T15:44:23.692Z,1.96
2018-05-14T15:50:24.543Z,2.56
2018-05-14T15:54:25.247Z,1.96
2018-05-14T16:00:26.293Z,2.46
2018-05-14T16:06:27.096Z,2.15
2018-05-14T16:10:27.871Z,2.11
2018-05-14T16:16:28.538Z,2.44
2018-05-14T16:20:29.302Z,1.68
2018-05-14T16:22:29.983Z,2.13
2018-05-14T16:26:30.716Z,1.93
2018-05-14T16:32:31.469Z,1.77
2018-05-14T16:36:32.209Z,2.74
2018-05-14T16:42:33.091Z,2.55
2018-05-14T16:46:33.750Z,2.04
2018-05-14T16:48:34.421Z,3.15
2018-05-14T16:52:35.202Z,3.59
2018-05-14T16:58:35.891Z,2.55
2018-05-14T17:02:36.751Z,3.03
2018-05-14T17:08:37.518Z,2.64
2018-05-14T17:14:38.351Z,3.22
2018-05-14T17:18:39.241Z,2.4
2018-05-14T17:24:40.128Z,2.14
2018-05-14T17:28:40.905Z,2.07
2018-05-14T17:30:41.680Z,2.54
2018-05-14T17:34:42.430Z,1.76
2018-05-14T17:40:43.224Z,2.83
2018-05-14T17:44:44.116Z,2.79
2018-05-14T17:50:44.812Z,3.53
2018-05-14T17:56:46.364Z,2.06
2018-05-14T18:00:47.270Z,2.18
2018-05-14T18:06:48.036Z,2.24
2018-05-14T18:10:49.018Z,2.51
2018-05-14T18:16:49.773Z,2.81
2018-05-14T18:22:50.529Z,3.3
2018-05-14T18:26:51.290Z,2.92
2018-05-14T18:32:52.090Z,2.31
2018-05-14T18:36:53.015Z,2.43
2018-05-14T18:38:53.598Z,3.66
2018-05-14T18:42:54.321Z,2.93
2018-05-14T18:48:55.198Z,4.06
2018-05-14T18:52:56.986Z,3.18
2018-05-14T18:58:58.064Z,2.9
2018-05-14T19:04:58.858Z,2.43
2018-05-14T19:08:59.570Z,2.59
2018-05-14T19:15:00.422Z,2.39
2018-05-14T19:19:01.183Z,2.4
2018-05-14T19:25:02.224Z,3.07
2018-05-14T19:31:02.758Z,2.65
2018-05-14T19:35:03.820Z,2.6
2018-05-14T19:41:04.719Z,2.76
2018-05-14T19:45:05.586Z,2.58
2018-05-14T19:51:08.139Z,2.06
2018-05-14T19:51:08.257Z,1.84
2018-05-14T19:57:09.081Z,1.78
2018-05-14T20:01:09.907Z,1.81
2018-05-14T20:07:10.743Z,2.22
2018-05-14T20:13:11.751Z,2.14
2018-05-14T20:17:13.326Z,2.29
2018-05-14T20:23:14.356Z,2.64
2018-05-14T20:27:15.388Z,2.03
2018-05-14T20:33:16.449Z,1.99
2018-05-14T20:39:17.352Z,1.95
2018-05-14T20:43:18.190Z,2.1
2018-05-14T20:49:18.941Z,1.71
2018-05-14T20:53:19.685Z,1.8
2018-05-14T20:55:20.464Z,1.92
2018-05-14T20:59:21.233Z,2.04
2018-05-14T21:05:22.174Z,2.83
2018-05-14T21:09:22.646Z,2.5
2018-05-14T21:15:23.738Z,2.81
2018-05-14T21:21:24.539Z,2.96
2018-05-14T21:25:25.307Z,2.82
2018-05-14T21:31:26.022Z,3.63
2018-05-14T21:35:26.832Z,2.76
2018-05-14T21:41:27.534Z,2.68
2018-05-14T21:47:28.382Z,2.39
2018-05-14T21:51:29.156Z,2.21
2018-05-14T21:57:29.906Z,2.47
2018-05-14T22:01:30.625Z,2.71
2018-05-14T22:03:31.363Z,2.58
2018-05-14T22:07:32.183Z,2.32
2018-05-14T22:13:32.903Z,3.03
2018-05-14T22:17:33.652Z,3.14
2018-05-14T22:23:34.622Z,2.85
2018-05-14T22:29:35.424Z,2.79
2018-05-14T22:33:36.191Z,2.62
2018-05-14T22:39:36.866Z,2.57
2018-05-14T22:43:37.638Z,2.49
2018-05-14T22:45:38.365Z,2.74
2018-05-14T22:49:39.097Z,2.58
2018-05-14T22:55:39.875Z,2.67
2018-05-14T22:59:40.664Z,2.6
2018-05-14T23:05:41.329Z,3.07
2018-05-14T23:09:42.083Z,3.01
2018-05-14T23:11:42.819Z,2.85
2018-05-14T23:15:43.510Z,3.14
2018-05-14T23:21:44.280Z,2.67
2018-05-14T23:25:44.993Z,2.59
2018-05-14T23:31:45.738Z,2.54
2018-05-14T23:37:46.413Z,2.3
2018-05-14T23:41:47.098Z,2.24
2018-05-14T23:47:48.013Z,2.39
2018-05-14T23:51:48.734Z,2.2
2018-05-14T23:53:49.483Z,2.34
